Terminal Aerodrome Forecast
Issued by NWS

Current Version | Previous Version | Text Only | Print | Product List | Glossary Off
Versions: 1 2 3 4 5 6 7 8 9 10 11 12 13 14 15

078
FTUS41 KILN 031608 AAB
TAFLCK
TAF AMD
KLCK 031608Z 0316/0412 21012G21KT P6SM SCT020 OVC050
      TEMPO 0316/0317 BKN020
     FM031700 22014G24KT P6SM SCT025
     FM031800 24018G30KT P6SM BKN035
     FM040500 25013G23KT P6SM OVC025
     FM041000 26012KT P6SM OVC018=

USA.gov is the U.S. government's official web portal to all federal, state and local government web resources and services.